Time;durP1;ratioP1;P1;durP2;ratioP2;P2;SDS_P1;SDS_P2;PMS_P1;PMS_P2;Temp;Humidity;BMP_temperature;BMP_pressure;BME280_temperature;BME280_humidity;BME280_pressure;Samples;Min_cycle;Max_cycle;Signal;HPM_P1;HPM_P2
2023/12/22 00:01:23;;;;;;;;;;;;;;;5.40;79.40;99170.72;5064446;28;19925;-85
2023/12/22 00:03:50;;;;;;;;;;;;;;;5.24;79.37;99190.88;5068641;28;19924;-82
2023/12/22 00:06:17;;;;;;;;;;;;;;;5.22;80.13;99209.09;5060213;28;19932;-83
2023/12/22 00:08:44;;;;;;;;;;;;;;;5.23;80.78;99200.44;5068664;28;19971;-83
2023/12/22 00:11:10;;;;;;;;;;;;;;;5.05;80.12;99198.06;5068432;28;19925;-88
2023/12/22 00:13:37;;;;;;;;;;;;;;;5.15;79.98;99206.63;5064253;28;19925;-82
2023/12/22 00:16:04;;;;;;;;;;;;;;;5.23;78.82;99233.41;5060050;28;19928;-86
2023/12/22 00:18:31;;;;;;;;;;;;;;;4.98;80.76;99236.31;5063194;28;19930;-83
2023/12/22 00:20:58;;;;;;;;;;;;;;;5.04;80.94;99232.78;5064896;28;20445;-83
2023/12/22 00:23:25;;;;;;;;;;;;;;;5.13;80.35;99226.59;5067416;28;20034;-83
2023/12/22 00:25:51;;;;;;;;;;;;;;;4.90;80.13;99226.88;5062533;28;19934;-84
2023/12/22 00:28:18;;;;;;;;;;;;;;;4.75;80.89;99233.06;5066358;28;19924;-83
2023/12/22 00:30:45;;;;;;;;;;;;;;;4.64;80.75;99215.00;5067788;28;19932;-84
2023/12/22 00:33:12;;;;;;;;;;;;;;;4.77;80.13;99210.53;5066017;28;19925;-84
2023/12/22 00:35:39;;;;;;;;;;;;;;;4.60;80.84;99216.75;5067139;28;19932;-84
2023/12/22 00:38:05;;;;;;;;;;;;;;;4.59;80.22;99225.47;5049429;28;20413;-83
2023/12/22 00:40:32;;;;;;;;;;;;;;;4.60;81.32;99214.16;5067219;28;19924;-84
2023/12/22 00:42:59;;;;;;;;;;;;;;;4.42;82.05;99215.22;5063476;28;19924;-83
2023/12/22 00:45:26;;;;;;;;;;;;;;;4.35;81.51;99219.59;5046959;28;19935;-89
2023/12/22 00:47:52;;;;;;;;;;;;;;;4.35;81.59;99203.16;5063857;28;19925;-83
2023/12/22 00:50:19;;;;;;;;;;;;;;;4.47;81.66;99202.19;5054372;28;19932;-83
2023/12/22 00:52:46;;;;;;;;;;;;;;;4.60;81.43;99195.97;5064928;28;19944;-86
2023/12/22 00:55:13;;;;;;;;;;;;;;;5.55;77.79;99193.94;5076458;28;19928;-81
2023/12/22 00:57:39;;;;;;;;;;;;;;;6.21;74.72;99181.66;5067514;28;19940;-81
2023/12/22 01:00:10;;;;;;;;;;;;;;;6.83;72.30;99180.50;5063928;28;19924;-82
2023/12/22 01:02:37;;;;;;;;;;;;;;;6.88;72.17;99170.84;5061137;28;19991;-82
2023/12/22 01:05:04;;;;;;;;;;;;;;;6.90;71.74;99170.81;5067270;28;19935;-81
2023/12/22 01:07:31;;;;;;;;;;;;;;;7.04;70.77;99180.94;5060495;28;19933;-82
2023/12/22 01:10:01;;;;;;;;;;;;;;;6.95;71.50;99198.50;5067022;28;19939;-83
2023/12/22 01:12:28;;;;;;;;;;;;;;;6.79;72.07;99194.47;5067083;28;19982;-82
2023/12/22 01:14:58;;;;;;;;;;;;;;;6.98;70.92;99176.72;5064276;28;20301;-82
2023/12/22 01:17:24;;;;;;;;;;;;;;;7.07;70.01;99205.22;5067728;28;19936;-83
2023/12/22 01:19:51;;;;;;;;;;;;;;;7.24;68.94;99186.63;5065312;28;19928;-82
2023/12/22 01:22:18;;;;;;;;;;;;;;;7.20;68.90;99186.69;5066034;28;19925;-86
2023/12/22 01:24:45;;;;;;;;;;;;;;;7.16;69.34;99213.75;5044341;28;19936;-83
2023/12/22 01:27:12;;;;;;;;;;;;;;;7.14;68.61;99211.19;5064106;28;19925;-82
2023/12/22 01:29:39;;;;;;;;;;;;;;;7.02;69.13;99206.22;5072701;28;19924;-85
2023/12/22 01:32:05;;;;;;;;;;;;;;;7.00;69.11;99195.81;5062871;28;19932;-84
2023/12/22 01:34:32;;;;;;;;;;;;;;;7.30;67.14;99201.28;5046532;28;20007;-81
2023/12/22 01:36:59;;;;;;;;;;;;;;;7.17;67.66;99218.94;5080535;28;20005;-82
2023/12/22 01:39:25;;;;;;;;;;;;;;;7.00;68.05;99211.47;5078514;28;19930;-83
2023/12/22 01:41:52;;;;;;;;;;;;;;;7.28;66.48;99205.66;5066139;28;19935;-81
2023/12/22 01:44:19;;;;;;;;;;;;;;;7.20;66.63;99200.63;5059243;28;19943;-82
2023/12/22 01:46:45;;;;;;;;;;;;;;;7.27;66.30;99211.75;5066688;28;19932;-82
2023/12/22 01:49:12;;;;;;;;;;;;;;;7.28;66.15;99209.13;5066669;28;19924;-82
2023/12/22 01:51:39;;;;;;;;;;;;;;;7.15;67.12;99205.06;5048899;28;20000;-82
2023/12/22 01:54:06;;;;;;;;;;;;;;;7.19;66.64;99214.53;5048573;28;19925;-81
2023/12/22 01:56:33;;;;;;;;;;;;;;;7.23;66.39;99203.16;5065402;28;19925;-81
2023/12/22 01:59:00;;;;;;;;;;;;;;;7.41;65.07;99214.94;5074812;28;19936;-82
2023/12/22 02:01:30;;;;;;;;;;;;;;;7.33;65.46;99206.44;5077827;28;20094;-81
2023/12/22 02:03:57;;;;;;;;;;;;;;;7.60;64.45;99214.53;5049063;28;19932;-81
2023/12/22 02:06:23;;;;;;;;;;;;;;;7.63;64.07;99219.69;5044089;28;19932;-81
2023/12/22 02:08:50;;;;;;;;;;;;;;;7.43;65.13;99227.94;5054530;28;19924;-82
2023/12/22 02:11:17;;;;;;;;;;;;;;;7.37;66.01;99218.53;5059380;28;19929;-82
2023/12/22 02:13:44;;;;;;;;;;;;;;;7.38;65.88;99233.28;5047124;28;20019;-81
2023/12/22 02:16:12;;;;;;;;;;;;;;;7.41;66.06;99224.53;5051631;28;19932;-83
2023/12/22 02:18:39;;;;;;;;;;;;;;;7.26;68.34;99225.72;5048665;28;19925;-84
2023/12/22 02:21:06;;;;;;;;;;;;;;;7.16;69.96;99229.41;5052121;28;19928;-82
2023/12/22 02:23:33;;;;;;;;;;;;;;;6.91;72.86;99264.66;5069749;28;19968;-82
2023/12/22 02:26:06;;;;;;;;;;;;;;;6.79;73.81;99249.22;5062874;28;20454;-86
2023/12/22 02:28:33;;;;;;;;;;;;;;;6.75;74.19;99242.38;5064822;28;19935;-82
2023/12/22 02:31:22;;;;;;;;;;;;;;;6.89;72.99;99248.16;5046090;28;20411;-81
2023/12/22 02:33:49;;;;;;;;;;;;;;;6.76;73.82;99234.53;5050124;28;19921;-82
2023/12/22 02:36:15;;;;;;;;;;;;;;;6.67;74.32;99228.63;5063323;28;19927;-82
2023/12/22 02:38:42;;;;;;;;;;;;;;;6.97;71.84;99211.53;5054556;28;19920;-84
2023/12/22 02:41:09;;;;;;;;;;;;;;;6.73;73.82;99228.50;5075053;28;20026;-83
2023/12/22 02:43:36;;;;;;;;;;;;;;;6.71;73.58;99235.50;5051727;28;19920;-82
2023/12/22 02:46:03;;;;;;;;;;;;;;;6.85;72.66;99245.66;5048522;28;19920;-84
2023/12/22 02:48:29;;;;;;;;;;;;;;;6.82;72.51;99246.56;5063628;28;19921;-83
2023/12/22 02:50:56;;;;;;;;;;;;;;;6.82;72.69;99249.16;5062387;28;19978;-81
2023/12/22 02:53:23;;;;;;;;;;;;;;;6.76;73.00;99249.28;5034543;28;19920;-84
2023/12/22 02:55:49;;;;;;;;;;;;;;;6.76;73.22;99259.72;5064119;28;19928;-82
2023/12/22 02:58:16;;;;;;;;;;;;;;;6.81;72.77;99244.88;5068703;28;19978;-82
2023/12/22 03:00:43;;;;;;;;;;;;;;;6.90;71.85;99242.06;5068514;28;20387;-83
2023/12/22 03:03:10;;;;;;;;;;;;;;;6.84;71.98;99252.63;5061454;28;19924;-82
2023/12/22 03:05:36;;;;;;;;;;;;;;;6.80;72.07;99245.75;5065663;28;20402;-91
2023/12/22 03:08:03;;;;;;;;;;;;;;;6.86;71.46;99250.84;5068246;28;19925;-82
2023/12/22 03:10:30;;;;;;;;;;;;;;;7.06;69.34;99237.41;5067339;28;19920;-84
2023/12/22 03:12:57;;;;;;;;;;;;;;;7.00;69.87;99245.38;5069663;28;19920;-83
2023/12/22 03:15:23;;;;;;;;;;;;;;;7.03;69.37;99240.09;5047546;28;20387;-83
2023/12/22 03:17:50;;;;;;;;;;;;;;;7.00;69.56;99252.34;5067379;28;19921;-83
2023/12/22 03:20:17;;;;;;;;;;;;;;;6.99;69.45;99241.03;5069253;28;19921;-86
2023/12/22 03:22:44;;;;;;;;;;;;;;;7.12;68.04;99254.69;5069574;28;19920;-82
2023/12/22 03:25:11;;;;;;;;;;;;;;;7.13;67.75;99274.69;5068211;28;20276;-83
2023/12/22 03:27:38;;;;;;;;;;;;;;;7.51;65.13;99277.41;5067134;28;19924;-81
2023/12/22 03:30:04;;;;;;;;;;;;;;;7.37;66.53;99272.47;5067763;28;19927;-82
2023/12/22 03:32:31;;;;;;;;;;;;;;;7.26;66.70;99257.88;5067007;28;19935;-81
2023/12/22 03:34:58;;;;;;;;;;;;;;;7.34;66.45;99275.16;5068929;28;19920;-83
2023/12/22 03:37:25;;;;;;;;;;;;;;;7.29;66.61;99265.66;5068637;28;19920;-82
2023/12/22 03:39:52;;;;;;;;;;;;;;;7.27;66.99;99269.19;5066486;28;19928;-81
2023/12/22 03:42:19;;;;;;;;;;;;;;;7.26;67.18;99268.31;5064214;28;19924;-81
2023/12/22 03:44:45;;;;;;;;;;;;;;;7.22;67.80;99265.81;5068558;28;19921;-82
2023/12/22 03:47:13;;;;;;;;;;;;;;;7.12;68.49;99275.56;5065049;28;19920;-82
2023/12/22 03:49:39;;;;;;;;;;;;;;;7.05;69.21;99284.41;5068437;28;19924;-82
2023/12/22 03:52:06;;;;;;;;;;;;;;;6.97;70.10;99272.38;5066044;28;19920;-85
2023/12/22 03:54:33;;;;;;;;;;;;;;;6.94;70.82;99275.03;5063743;28;19920;-82
2023/12/22 03:56:59;;;;;;;;;;;;;;;7.01;70.23;99278.41;5067854;28;19924;-81
2023/12/22 03:59:26;;;;;;;;;;;;;;;6.94;70.30;99269.81;5067988;28;19924;-83
2023/12/22 04:01:53;;;;;;;;;;;;;;;6.99;70.19;99263.66;5047945;28;19927;-82
2023/12/22 04:04:22;;;;;;;;;;;;;;;6.92;70.27;99222.06;5074584;28;19930;-81
2023/12/22 04:06:49;;;;;;;;;;;;;;;7.02;69.66;99258.38;5050938;28;19969;-82
2023/12/22 04:09:16;;;;;;;;;;;;;;;6.94;69.90;99267.22;5075370;28;20395;-81
2023/12/22 04:11:42;;;;;;;;;;;;;;;6.96;69.91;99246.31;5069578;28;19960;-85
2023/12/22 04:14:09;;;;;;;;;;;;;;;6.92;70.10;99242.91;5070345;28;19920;-82
2023/12/22 04:16:38;;;;;;;;;;;;;;;7.10;68.89;99278.22;5050385;28;19926;-83
2023/12/22 04:19:05;;;;;;;;;;;;;;;7.05;69.36;99287.00;5068076;28;19924;-81
2023/12/22 04:21:37;;;;;;;;;;;;;;;7.00;70.15;99288.88;5069253;28;19927;-82
2023/12/22 04:24:04;;;;;;;;;;;;;;;7.04;69.69;99252.25;5054839;28;20015;-84
2023/12/22 04:26:31;;;;;;;;;;;;;;;7.04;69.60;99277.44;5083775;28;19920;-82
2023/12/22 04:28:57;;;;;;;;;;;;;;;7.04;69.92;99282.66;5068657;28;19926;-82
2023/12/22 04:31:24;;;;;;;;;;;;;;;7.01;70.27;99303.59;5068764;28;19920;-82
2023/12/22 04:33:51;;;;;;;;;;;;;;;7.05;69.98;99310.50;5070278;28;19920;-84
2023/12/22 04:36:17;;;;;;;;;;;;;;;7.01;70.36;99301.00;5067599;28;19920;-85
2023/12/22 04:38:44;;;;;;;;;;;;;;;6.87;72.14;99299.50;5054860;28;19920;-81
2023/12/22 04:41:11;;;;;;;;;;;;;;;6.74;73.41;99311.06;5069047;28;20375;-84
2023/12/22 04:43:42;;;;;;;;;;;;;;;6.74;73.55;99316.25;5039596;28;19983;-84
2023/12/22 04:46:08;;;;;;;;;;;;;;;6.73;72.70;99314.53;5074254;28;19920;-88
2023/12/22 04:48:35;;;;;;;;;;;;;;;6.70;73.27;99309.38;5026597;28;19928;-83
2023/12/22 04:51:02;;;;;;;;;;;;;;;6.65;73.87;99311.19;5068604;28;19921;-82
2023/12/22 04:53:29;;;;;;;;;;;;;;;6.63;74.07;99320.78;5067054;28;20007;-82
2023/12/22 04:55:56;;;;;;;;;;;;;;;6.61;74.47;99308.66;5049615;28;19955;-85
2023/12/22 04:58:23;;;;;;;;;;;;;;;6.57;74.62;99313.94;5048115;28;19969;-81
2023/12/22 05:00:49;;;;;;;;;;;;;;;6.43;76.55;99327.19;5067407;28;19924;-85
2023/12/22 05:03:16;;;;;;;;;;;;;;;6.56;75.12;99328.72;5066071;28;19925;-82
2023/12/22 05:05:43;;;;;;;;;;;;;;;6.40;77.19;99337.66;5067265;28;19921;-84
2023/12/22 05:08:10;;;;;;;;;;;;;;;6.33;78.07;99331.69;5067393;28;19927;-83
2023/12/22 05:10:36;;;;;;;;;;;;;;;6.34;77.64;99336.00;5049622;28;19920;-83
2023/12/22 05:13:03;;;;;;;;;;;;;;;6.52;75.83;99337.47;5067255;28;19924;-82
2023/12/22 05:15:30;;;;;;;;;;;;;;;6.40;76.51;99335.06;5066254;28;19924;-82
2023/12/22 05:17:56;;;;;;;;;;;;;;;6.45;76.17;99325.44;5041988;28;19927;-81
2023/12/22 05:20:23;;;;;;;;;;;;;;;6.44;75.63;99335.00;5068143;28;19921;-81
2023/12/22 05:22:50;;;;;;;;;;;;;;;6.35;76.35;99326.47;5067117;28;19925;-82
2023/12/22 05:25:17;;;;;;;;;;;;;;;6.47;75.19;99322.78;5064702;28;19946;-81
2023/12/22 05:27:44;;;;;;;;;;;;;;;6.43;75.25;99329.78;5063951;28;19963;-86
2023/12/22 05:30:11;;;;;;;;;;;;;;;6.62;73.57;99327.78;5068876;28;19926;-82
2023/12/22 05:32:37;;;;;;;;;;;;;;;6.54;74.44;99353.09;5049160;28;19927;-82
2023/12/22 05:35:04;;;;;;;;;;;;;;;6.65;73.12;99337.25;5067095;28;19921;-84
2023/12/22 05:37:31;;;;;;;;;;;;;;;6.64;73.14;99351.22;5032799;28;20057;-81
2023/12/22 05:39:58;;;;;;;;;;;;;;;6.83;71.51;99342.16;5069169;28;19921;-81
2023/12/22 05:42:24;;;;;;;;;;;;;;;6.71;72.43;99343.25;5066987;28;19920;-82
2023/12/22 05:44:51;;;;;;;;;;;;;;;6.67;73.04;99364.19;5068092;28;19939;-82
2023/12/22 05:47:18;;;;;;;;;;;;;;;6.99;70.32;99365.38;5049128;28;19943;-81
2023/12/22 05:49:45;;;;;;;;;;;;;;;6.88;71.51;99369.03;5052831;28;19924;-86
2023/12/22 05:52:12;;;;;;;;;;;;;;;6.93;70.85;99358.53;5049382;28;19920;-82
2023/12/22 05:54:38;;;;;;;;;;;;;;;6.99;70.91;99362.78;5073381;28;19924;-84
2023/12/22 05:57:06;;;;;;;;;;;;;;;6.91;71.07;99363.78;5070144;28;19927;-82
2023/12/22 05:59:34;;;;;;;;;;;;;;;6.91;71.55;99360.31;5073059;28;19928;-84
2023/12/22 06:02:02;;;;;;;;;;;;;;;7.15;69.55;99353.78;5063191;28;19982;-86
2023/12/22 06:04:29;;;;;;;;;;;;;;;7.07;70.01;99355.69;5069242;28;19958;-81
2023/12/22 06:06:56;;;;;;;;;;;;;;;7.25;68.59;99365.75;5069032;28;19924;-82
2023/12/22 06:09:22;;;;;;;;;;;;;;;7.29;68.47;99382.25;5069537;28;19943;-82
2023/12/22 06:11:49;;;;;;;;;;;;;;;7.29;68.12;99364.81;5070289;28;19938;-81
2023/12/22 06:14:16;;;;;;;;;;;;;;;7.19;69.31;99380.69;5071406;28;19927;-81
2023/12/22 06:16:43;;;;;;;;;;;;;;;7.16;69.17;99384.22;5073989;28;19925;-83
2023/12/22 06:19:10;;;;;;;;;;;;;;;7.21;68.58;99400.66;5068379;28;19920;-84
2023/12/22 06:21:37;;;;;;;;;;;;;;;7.15;68.76;99385.09;5054107;28;19920;-83
2023/12/22 06:24:04;;;;;;;;;;;;;;;7.16;68.46;99402.47;5071356;28;19920;-82
2023/12/22 06:26:30;;;;;;;;;;;;;;;7.17;68.04;99399.00;5053094;28;19971;-81
2023/12/22 06:28:57;;;;;;;;;;;;;;;7.17;67.88;99399.00;5072706;28;19928;-83
2023/12/22 06:31:24;;;;;;;;;;;;;;;7.24;66.78;99400.59;5072087;28;19920;-84
2023/12/22 06:33:51;;;;;;;;;;;;;;;7.15;67.44;99400.75;5071489;28;20006;-82
2023/12/22 06:36:21;;;;;;;;;;;;;;;7.24;66.20;99395.38;5071645;28;19975;-82
2023/12/22 06:38:48;;;;;;;;;;;;;;;7.21;66.36;99390.22;5065197;28;20284;-82
2023/12/22 06:41:24;;;;;;;;;;;;;;;7.12;66.41;99390.38;5071384;28;19947;-83
2023/12/22 06:43:54;;;;;;;;;;;;;;;7.22;65.62;99404.97;5071734;28;20366;-82
2023/12/22 06:46:25;;;;;;;;;;;;;;;7.22;65.05;99415.41;5055646;28;20003;-82
2023/12/22 06:48:54;;;;;;;;;;;;;;;7.22;65.12;99419.78;5064111;28;19926;-82
2023/12/22 06:51:26;;;;;;;;;;;;;;;7.02;66.72;99430.56;5074050;28;19924;-82
2023/12/22 06:53:54;;;;;;;;;;;;;;;7.18;64.74;99421.56;5072871;28;19951;-82
2023/12/22 06:56:22;;;;;;;;;;;;;;;7.12;65.32;99440.78;5072720;28;19922;-83
2023/12/22 06:58:50;;;;;;;;;;;;;;;7.14;65.18;99432.97;5055284;28;20375;-82
2023/12/22 07:01:35;;;;;;;;;;;;;;;7.10;65.38;99433.91;5043860;28;19940;-82
2023/12/22 07:04:03;;;;;;;;;;;;;;;7.01;65.68;99429.69;5073649;28;19920;-84
2023/12/22 07:06:30;;;;;;;;;;;;;;;7.05;65.66;99447.00;5070449;28;20387;-83
2023/12/22 07:09:12;;;;;;;;;;;;;;;7.03;65.68;99442.72;5070563;28;19992;-82
2023/12/22 07:11:40;;;;;;;;;;;;;;;6.93;66.54;99452.44;5045857;28;19920;-81
2023/12/22 07:14:07;;;;;;;;;;;;;;;6.90;67.24;99468.13;5071414;28;19921;-83
2023/12/22 07:16:34;;;;;;;;;;;;;;;6.93;67.14;99470.69;5070220;28;19967;-82
2023/12/22 07:19:01;;;;;;;;;;;;;;;6.91;67.87;99459.44;5052949;28;19927;-84
2023/12/22 07:21:27;;;;;;;;;;;;;;;7.00;67.53;99471.47;5071424;28;19920;-83
2023/12/22 07:23:54;;;;;;;;;;;;;;;6.97;68.16;99454.97;5072261;28;19920;-83
2023/12/22 07:26:21;;;;;;;;;;;;;;;6.96;68.96;99462.81;5071026;28;19926;-82
2023/12/22 07:28:48;;;;;;;;;;;;;;;6.99;69.52;99472.34;5070908;28;19995;-83
2023/12/22 07:31:18;;;;;;;;;;;;;;;6.97;69.69;99472.38;5070878;28;19921;-84
2023/12/22 07:33:45;;;;;;;;;;;;;;;6.83;71.45;99487.38;5070963;28;19924;-82
2023/12/22 07:36:14;;;;;;;;;;;;;;;6.87;70.97;99495.13;5071213;28;19939;-82
2023/12/22 07:38:40;;;;;;;;;;;;;;;6.89;71.21;99493.31;5071593;28;20007;-89
2023/12/22 07:41:07;;;;;;;;;;;;;;;6.88;71.59;99517.72;5068276;28;19920;-84
2023/12/22 07:43:34;;;;;;;;;;;;;;;6.88;71.84;99512.50;5069854;28;19927;-81
2023/12/22 07:46:01;;;;;;;;;;;;;;;6.93;71.79;99526.31;5051915;28;19978;-82
2023/12/22 07:48:28;;;;;;;;;;;;;;;6.86;72.32;99532.50;5071020;28;19975;-83
2023/12/22 07:50:55;;;;;;;;;;;;;;;7.00;71.95;99547.97;5070430;28;20431;-84
2023/12/22 07:53:22;;;;;;;;;;;;;;;7.06;71.37;99531.38;5071292;28;19921;-82
2023/12/22 07:55:48;;;;;;;;;;;;;;;7.01;71.78;99526.22;5069258;28;19921;-82
2023/12/22 07:58:17;;;;;;;;;;;;;;;6.94;72.55;99530.66;5052141;28;19968;-82
2023/12/22 08:00:43;;;;;;;;;;;;;;;7.12;71.56;99520.81;5070598;28;19931;-82
2023/12/22 08:03:10;;;;;;;;;;;;;;;7.05;71.53;99524.41;5067982;28;20049;-82
2023/12/22 08:05:37;;;;;;;;;;;;;;;6.94;72.84;99517.59;5053226;28;19928;-83
2023/12/22 08:08:04;;;;;;;;;;;;;;;6.95;72.76;99518.47;5053678;28;19920;-82
2023/12/22 08:10:30;;;;;;;;;;;;;;;7.07;72.05;99512.22;5070340;28;19928;-82
2023/12/22 08:12:57;;;;;;;;;;;;;;;7.13;71.98;99512.97;5055496;28;19932;-83
2023/12/22 08:15:24;;;;;;;;;;;;;;;7.10;72.17;99513.03;5073110;28;19920;-82
2023/12/22 08:18:01;;;;;;;;;;;;;;;7.27;70.58;99504.06;5072311;28;19924;-82
2023/12/22 08:20:28;;;;;;;;;;;;;;;7.41;69.76;99488.16;5071699;28;19920;-83
2023/12/22 08:23:02;;;;;;;;;;;;;;;7.34;70.38;99495.22;5054487;28;20023;-82
2023/12/22 08:25:35;;;;;;;;;;;;;;;7.35;70.52;99490.91;5054498;28;20287;-82
2023/12/22 08:28:02;;;;;;;;;;;;;;;7.40;70.29;99491.66;5071908;28;19928;-82
2023/12/22 08:30:29;;;;;;;;;;;;;;;7.36;70.54;99484.75;5070332;28;19989;-82
2023/12/22 08:32:56;;;;;;;;;;;;;;;7.41;69.85;99481.19;5072415;28;19932;-82
2023/12/22 08:35:23;;;;;;;;;;;;;;;7.41;70.18;99482.94;5073914;28;19928;-81
2023/12/22 08:37:50;;;;;;;;;;;;;;;7.47;69.67;99496.78;5070765;28;19927;-83
2023/12/22 08:40:17;;;;;;;;;;;;;;;7.62;68.36;99495.63;5071285;28;19996;-83
2023/12/22 08:42:43;;;;;;;;;;;;;;;7.52;69.36;99499.28;5045614;28;19928;-81
2023/12/22 08:45:10;;;;;;;;;;;;;;;7.55;69.04;99508.81;5070676;28;20016;-84
2023/12/22 08:47:37;;;;;;;;;;;;;;;7.57;69.22;99494.84;5053187;28;19962;-83
2023/12/22 08:50:04;;;;;;;;;;;;;;;7.60;69.10;99496.53;5069112;28;19974;-80
2023/12/22 08:52:31;;;;;;;;;;;;;;;7.57;69.50;99488.75;5071374;28;19974;-82
2023/12/22 08:54:58;;;;;;;;;;;;;;;7.63;68.58;99483.41;5071177;28;19924;-82
2023/12/22 08:57:25;;;;;;;;;;;;;;;7.63;68.99;99489.53;5057143;28;20014;-85
2023/12/22 08:59:51;;;;;;;;;;;;;;;7.75;68.25;99479.72;5071762;28;20022;-80
2023/12/22 09:02:18;;;;;;;;;;;;;;;7.64;69.18;99486.00;5070847;28;19920;-83
2023/12/22 09:04:45;;;;;;;;;;;;;;;7.70;68.82;99494.63;5071647;28;20007;-82
2023/12/22 09:07:11;;;;;;;;;;;;;;;7.77;68.27;99488.41;5073382;28;19920;-82
2023/12/22 09:09:39;;;;;;;;;;;;;;;7.69;69.13;99485.94;5070240;28;20341;-83
2023/12/22 09:12:06;;;;;;;;;;;;;;;7.68;69.47;99488.59;5067269;28;19926;-82
2023/12/22 09:14:33;;;;;;;;;;;;;;;7.64;69.92;99493.84;5067472;28;19927;-82
2023/12/22 09:17:00;;;;;;;;;;;;;;;7.68;69.38;99504.25;5062434;28;19932;-81
2023/12/22 09:19:27;;;;;;;;;;;;;;;7.70;69.57;99507.69;5067405;28;19920;-83
2023/12/22 09:21:54;;;;;;;;;;;;;;;7.70;69.62;99502.47;5067255;28;20514;-81
2023/12/22 09:24:21;;;;;;;;;;;;;;;7.77;68.82;99493.63;5060472;28;19920;-81
2023/12/22 09:26:47;;;;;;;;;;;;;;;7.78;69.22;99505.81;5065713;28;19974;-80
2023/12/22 09:29:14;;;;;;;;;;;;;;;7.79;69.21;99497.06;5066132;28;19920;-81
2023/12/22 09:31:41;;;;;;;;;;;;;;;7.87;68.43;99504.75;5063319;28;19927;-82
2023/12/22 09:34:08;;;;;;;;;;;;;;;7.84;68.67;99496.06;5064536;28;20004;-83
2023/12/22 09:36:34;;;;;;;;;;;;;;;7.90;68.22;99497.72;5066628;28;20349;-81
2023/12/22 09:39:02;;;;;;;;;;;;;;;7.88;68.36;99507.34;5065174;28;20371;-82
2023/12/22 09:41:29;;;;;;;;;;;;;;;7.92;68.15;99509.00;5062913;28;19974;-84
2023/12/22 09:43:55;;;;;;;;;;;;;;;7.91;68.40;99511.66;5061764;28;19943;-83
2023/12/22 09:46:22;;;;;;;;;;;;;;;7.91;68.36;99506.44;5048855;28;19928;-81
2023/12/22 09:48:49;;;;;;;;;;;;;;;7.93;68.10;99500.25;5053139;28;19971;-82
2023/12/22 09:51:16;;;;;;;;;;;;;;;8.07;67.53;99493.94;5033912;28;19970;-84
2023/12/22 09:53:43;;;;;;;;;;;;;;;7.94;68.58;99486.31;5049104;28;19928;-86
2023/12/22 09:56:10;;;;;;;;;;;;;;;7.98;68.51;99488.00;5039069;28;20074;-85
2023/12/22 09:58:38;;;;;;;;;;;;;;;7.98;68.67;99480.16;5053859;28;19977;-88
2023/12/22 10:01:06;;;;;;;;;;;;;;;7.97;69.26;99499.31;5059760;28;19930;-86
2023/12/22 10:03:34;;;;;;;;;;;;;;;7.94;69.72;99488.09;5060214;28;20354;-85
2023/12/22 10:06:02;;;;;;;;;;;;;;;7.89;69.84;99469.84;5049326;28;19975;-86
2023/12/22 10:08:29;;;;;;;;;;;;;;;7.94;69.81;99468.03;5042781;28;19927;-85
2023/12/22 10:10:58;;;;;;;;;;;;;;;8.01;69.24;99482.69;5022128;28;19947;-86
2023/12/22 10:13:27;;;;;;;;;;;;;;;8.11;68.43;99479.88;5027139;28;19931;-86
2023/12/22 10:15:56;;;;;;;;;;;;;;;8.07;68.91;99484.34;5047332;28;19928;-86
2023/12/22 10:18:24;;;;;;;;;;;;;;;8.07;69.26;99475.63;5004449;28;19924;-85
2023/12/22 10:20:51;;;;;;;;;;;;;;;8.04;69.67;99480.91;5021142;28;19920;-85
2023/12/22 10:23:20;;;;;;;;;;;;;;;8.08;69.68;99469.50;5048709;28;19928;-86
2023/12/22 10:25:47;;;;;;;;;;;;;;;8.08;70.02;99470.38;5029681;28;19921;-85
2023/12/22 10:28:15;;;;;;;;;;;;;;;8.14;69.59;99466.75;5071317;28;20007;-86
2023/12/22 10:30:44;;;;;;;;;;;;;;;8.11;69.89;99475.53;5061516;28;19974;-87
2023/12/22 10:33:15;;;;;;;;;;;;;;;8.17;69.59;99446.66;5064459;28;19932;-87
2023/12/22 10:35:43;;;;;;;;;;;;;;;8.09;70.68;99434.66;5065085;28;19921;-85
2023/12/22 10:38:11;;;;;;;;;;;;;;;8.24;69.42;99431.72;5061510;28;19920;-89
2023/12/22 10:40:38;;;;;;;;;;;;;;;8.24;69.94;99421.25;5050154;28;19970;-85
2023/12/22 10:43:06;;;;;;;;;;;;;;;8.35;69.10;99424.47;5036069;28;20010;-85
2023/12/22 10:45:33;;;;;;;;;;;;;;;8.42;68.90;99435.66;5069761;28;19924;-85
2023/12/22 10:48:02;;;;;;;;;;;;;;;8.43;69.09;99433.91;5068171;28;19927;-86
2023/12/22 10:50:30;;;;;;;;;;;;;;;8.52;68.35;99431.13;5069311;28;19921;-85
2023/12/22 10:52:57;;;;;;;;;;;;;;;8.49;69.14;99436.44;5052692;28;20007;-84
2023/12/22 10:55:24;;;;;;;;;;;;;;;8.46;69.81;99437.34;5070688;28;19920;-84
2023/12/22 10:57:51;;;;;;;;;;;;;;;8.53;69.40;99443.31;5072658;28;19974;-86
2023/12/22 11:00:21;;;;;;;;;;;;;;;8.52;69.88;99431.13;5073053;28;19958;-86
2023/12/22 11:02:50;;;;;;;;;;;;;;;8.50;69.84;99432.91;5052177;28;19920;-85
2023/12/22 11:05:17;;;;;;;;;;;;;;;8.46;70.73;99434.75;5070617;28;19924;-83
2023/12/22 11:07:47;;;;;;;;;;;;;;;8.36;72.60;99434.06;5056556;28;19979;-85
2023/12/22 11:10:14;;;;;;;;;;;;;;;8.26;73.42;99439.53;5054891;28;19927;-82
2023/12/22 11:12:41;;;;;;;;;;;;;;;8.25;73.22;99409.03;5052422;28;19927;-83
2023/12/22 11:15:08;;;;;;;;;;;;;;;8.10;75.29;99407.63;5082799;28;19920;-83
2023/12/22 11:17:39;;;;;;;;;;;;;;;8.14;75.20;99397.06;5051133;28;19931;-85
2023/12/22 11:20:11;;;;;;;;;;;;;;;8.15;74.93;99390.97;5068319;28;19920;-84
2023/12/22 11:22:38;;;;;;;;;;;;;;;8.22;74.71;99380.38;5044883;28;20019;-83
2023/12/22 11:25:05;;;;;;;;;;;;;;;8.33;73.45;99379.22;5052579;28;19920;-85
2023/12/22 11:27:33;;;;;;;;;;;;;;;8.31;73.83;99367.97;5051018;28;19921;-85
2023/12/22 11:30:00;;;;;;;;;;;;;;;8.35;73.57;99361.75;5072193;28;20008;-82
2023/12/22 11:32:27;;;;;;;;;;;;;;;8.27;74.73;99357.59;5070883;28;19959;-88
2023/12/22 11:34:53;;;;;;;;;;;;;;;8.31;73.98;99356.63;5047926;28;20011;-88
2023/12/22 11:37:20;;;;;;;;;;;;;;;8.32;74.20;99338.28;5047320;28;19927;-85
2023/12/22 11:39:48;;;;;;;;;;;;;;;8.30;74.50;99345.31;5064365;28;19927;-82
2023/12/22 11:42:16;;;;;;;;;;;;;;;8.26;74.44;99351.50;5086346;28;19921;-81
2023/12/22 11:44:43;;;;;;;;;;;;;;;8.27;74.69;99340.16;5039647;28;19927;-83
2023/12/22 11:47:10;;;;;;;;;;;;;;;8.19;75.81;99327.25;5066755;28;19920;-83
2023/12/22 11:49:38;;;;;;;;;;;;;;;8.16;75.94;99323.88;5074831;28;19921;-82
2023/12/22 11:52:14;;;;;;;;;;;;;;;8.10;76.70;99318.78;5052540;28;20371;-82
2023/12/22 11:54:49;;;;;;;;;;;;;;;8.05;77.50;99326.69;5068612;28;19920;-83
2023/12/22 11:57:30;;;;;;;;;;;;;;;7.97;78.36;99310.38;5052370;28;19967;-83
2023/12/22 12:00:03;;;;;;;;;;;;;;;8.01;78.68;99309.41;5065660;28;19931;-84
2023/12/22 12:02:30;;;;;;;;;;;;;;;8.08;78.32;99299.66;5069528;28;19935;-83
2023/12/22 12:04:59;;;;;;;;;;;;;;;8.10;78.37;99306.56;5063109;28;19995;-83
2023/12/22 12:07:41;;;;;;;;;;;;;;;8.14;78.30;99294.28;5080989;28;19920;-83
2023/12/22 12:10:08;;;;;;;;;;;;;;;8.12;78.49;99301.31;5065596;28;19984;-83
2023/12/22 12:12:36;;;;;;;;;;;;;;;8.18;78.26;99295.94;5070939;28;19927;-82
2023/12/22 12:15:07;;;;;;;;;;;;;;;8.23;78.23;99299.31;5066408;28;19943;-82
2023/12/22 12:17:33;;;;;;;;;;;;;;;8.27;78.07;99300.06;5066575;28;19932;-87
2023/12/22 12:20:00;;;;;;;;;;;;;;;8.22;78.46;99286.28;5064259;28;19928;-86
2023/12/22 12:22:27;;;;;;;;;;;;;;;8.27;78.67;99280.03;5047748;28;19920;-83
2023/12/22 12:24:53;;;;;;;;;;;;;;;8.24;79.17;99277.50;5077336;28;19928;-81
2023/12/22 12:27:20;;;;;;;;;;;;;;;8.22;79.91;99276.66;5063940;28;19920;-84
2023/12/22 12:29:47;;;;;;;;;;;;;;;8.27;79.34;99253.03;5079438;28;19928;-82
2023/12/22 12:32:14;;;;;;;;;;;;;;;8.26;79.68;99257.41;5066012;28;19924;-82
2023/12/22 12:34:43;;;;;;;;;;;;;;;8.34;78.91;99252.88;5063298;28;19927;-85
2023/12/22 12:37:10;;;;;;;;;;;;;;;8.38;79.00;99273.69;5075927;28;19924;-83
2023/12/22 12:39:37;;;;;;;;;;;;;;;8.40;78.81;99256.19;5050886;28;19970;-84
2023/12/22 12:42:04;;;;;;;;;;;;;;;8.33;79.74;99274.66;5080501;28;19924;-82
2023/12/22 12:44:32;;;;;;;;;;;;;;;8.40;79.09;99269.28;5046594;28;19921;-82
2023/12/22 12:47:00;;;;;;;;;;;;;;;8.40;79.43;99266.66;5080682;28;19921;-82
2023/12/22 12:49:29;;;;;;;;;;;;;;;8.44;79.30;99277.03;5067933;28;19928;-84
2023/12/22 12:51:56;;;;;;;;;;;;;;;8.50;78.74;99273.41;5068628;28;19924;-85
2023/12/22 12:54:23;;;;;;;;;;;;;;;8.59;77.84;99262.72;5082476;28;19924;-83
2023/12/22 12:56:51;;;;;;;;;;;;;;;8.69;77.43;99243.28;5050343;28;19936;-82
2023/12/22 12:59:18;;;;;;;;;;;;;;;8.61;78.07;99241.75;5069123;28;20015;-82